| time (UTC) | temp C | wind direction | speed KPH | gust KPH | rain 1hr cm | rain 24hr cm | rain mn cm | humidity % | barometer mb |
| 20260507144535 | 22 | 280 | 11.3 | 27.4 | 0.00 | 0.00 | 0.00 | 39 | 1007.9 |
| 20260507143036 | 22 | 228 | 14.5 | 29.0 | 0.00 | 0.00 | 0.00 | 41 | 1008.0 |
| 20260507141531 | 22 | 265 | 12.9 | 22.5 | 0.00 | 0.00 | 0.00 | 45 | 1008.2 |
| 20260507140032 | 22 | 250 | 11.3 | 24.1 | 0.00 | 0.00 | 0.00 | 46 | 1008.3 |
| 20260507134531 | 22 | 205 | 11.3 | 24.1 | 0.00 | 0.00 | 0.00 | 46 | 1008.3 |
| 20260507133028 | 22 | 248 | 11.3 | 25.7 | 0.00 | 0.00 | 0.00 | 46 | 1008.5 |
| 20260507131531 | 21 | 255 | 12.9 | 27.4 | 0.00 | 0.00 | 0.00 | 48 | 1008.6 |
| 20260507130026 | 22 | 238 | 12.9 | 25.7 | 0.00 | 0.00 | 0.00 | 47 | 1008.6 |
| 20260507124531 | 21 | 215 | 9.7 | 25.7 | 0.00 | 0.00 | 0.00 | 47 | 1008.6 |
| 20260507123028 | 21 | 201 | 14.5 | 29.0 | 0.00 | 0.00 | 0.00 | 50 | 1008.8 |
| 20260507121522 | 21 | 244 | 11.3 | 24.1 | 0.00 | 0.00 | 0.00 | 49 | 1008.9 |
| 20260507120026 | 21 | 236 | 12.9 | 25.7 | 0.00 | 0.00 | 0.00 | 52 | 1009.1 |
| 20260507114521 | 21 | 249 | 11.3 | 19.3 | 0.00 | 0.00 | 0.00 | 50 | 1009.1 |
| 20260507113019 | 21 | 228 | 11.3 | 20.9 | 0.00 | 0.00 | 0.00 | 50 | 1009.2 |
| 20260507111516 | 21 | 198 | 16.1 | 25.7 | 0.00 | 0.00 | 0.00 | 52 | 1009.3 |
| 20260507110016 | 21 | 204 | 12.9 | 27.4 | 0.00 | 0.00 | 0.00 | 52 | 1009.4 |
| 20260507104512 | 20 | 201 | 8.0 | 22.5 | 0.00 | 0.00 | 0.00 | 58 | 1009.3 |
| 20260507103012 | 20 | 236 | 6.4 | 19.3 | 0.00 | 0.00 | 0.00 | 58 | 1009.4 |
| 20260507101512 | 19 | 206 | 8.0 | 19.3 | 0.00 | 0.00 | 0.00 | 60 | 1009.5 |
| 20260507100007 | 18 | 182 | 8.0 | 20.9 | 0.00 | 0.00 | 0.00 | 62 | 1009.7 |
| 20260507094504 | 19 | 261 | 9.7 | 24.1 | 0.00 | 0.00 | 0.00 | 63 | 1009.7 |
| 20260507093100 | 18 | 178 | 9.7 | 25.7 | 0.00 | 0.00 | 0.00 | 66 | 1009.6 |
| 20260507091557 | 18 | 174 | 9.7 | 20.9 | 0.00 | 0.00 | 0.00 | 69 | 1009.6 |
| 20260507090059 | 17 | 183 | 8.0 | 24.1 | 0.00 | 0.00 | 0.00 | 70 | 1009.6 |
| 20260507084558 | 17 | 207 | 9.7 | 22.5 | 0.00 | 0.00 | 0.00 | 71 | 1009.6 |
| 20260507083052 | 17 | 204 | 11.3 | 20.9 | 0.00 | 0.00 | 0.00 | 72 | 1009.5 |
| 20260507081548 | 17 | 167 | 9.7 | 19.3 | 0.00 | 0.00 | 0.00 | 74 | 1009.4 |
| 20260507080053 | 16 | 194 | 9.7 | 19.3 | 0.00 | 0.00 | 0.00 | 75 | 1009.4 |
| 20260507074541 | 16 | 152 | 6.4 | 19.3 | 0.00 | 0.00 | 0.00 | 76 | 1009.3 |
| 20260507073038 | 15 | 184 | 6.4 | 16.1 | 0.00 | 0.00 | 0.00 | 75 | 1009.1 |
| 20260507071536 | 15 | 141 | 3.2 | 11.3 | 0.00 | 0.00 | 0.00 | 76 | 1009.0 |
| 20260507070035 | 15 | 137 | 3.2 | 11.3 | 0.00 | 0.00 | 0.00 | 78 | 1008.9 |
| 20260507064532 | 14 | 139 | 1.6 | 8.0 | 0.00 | 0.00 | 0.00 | 80 | 1008.9 |
| 20260507063029 | 13 | 147 | 3.2 | 8.0 | 0.00 | 0.00 | 0.00 | 81 | 1008.9 |
| 20260507061527 | 13 | 111 | 1.6 | 4.8 | 0.00 | 0.00 | 0.00 | 81 | 1008.7 |
| 20260507060026 | 13 | 145 | 0.0 | 3.2 | 0.00 | 0.00 | 0.00 | 81 | 1008.6 |
| 20260507054534 | 13 | 197 | 0.0 | 3.2 | 0.00 | 0.00 | 0.00 | 81 | 1008.4 |
| 20260507053023 | 13 | 201 | 0.0 | 0.0 | 0.00 | 0.00 | 0.00 | 80 | 1008.4 |
| 20260507051521 | 13 | 201 | 0.0 | 0.0 | 0.00 | 0.00 | 0.00 | 80 | 1008.5 |
| 20260507050025 | 13 | 201 | 0.0 | 0.0 | 0.00 | 0.00 | 0.00 | 80 | 1008.4 |
| 20260507044518 | 13 | 201 | 0.0 | 0.0 | 0.00 | 0.00 | 0.00 | 79 | 1008.2 |
| 20260507043023 | 13 | 201 | 0.0 | 4.8 | 0.00 | 0.00 | 0.00 | 79 | 1008.1 |
| 20260507041517 | 13 | 206 | 0.0 | 6.4 | 0.00 | 0.00 | 0.00 | 79 | 1007.9 |
| 20260507040016 | 13 | 153 | 1.6 | 11.3 | 0.00 | 0.00 | 0.00 | 78 | 1007.8 |
| 20260507034515 | 13 | 179 | 1.6 | 4.8 | 0.00 | 0.00 | 0.00 | 78 | 1007.8 |
| 20260507033014 | 13 | 182 | 1.6 | 6.4 | 0.00 | 0.00 | 0.00 | 77 | 1007.8 |
| 20260507031513 | 13 | 195 | 0.0 | 4.8 | 0.00 | 0.00 | 0.00 | 77 | 1007.9 |
| 20260507030013 | 13 | 194 | 0.0 | 6.4 | 0.00 | 0.00 | 0.00 | 76 | 1007.8 |
| 20260507024513 | 14 | 186 | 4.8 | 11.3 | 0.00 | 0.00 | 0.00 | 76 | 1007.7 |
| 20260507023011 | 14 | 247 | 3.2 | 8.0 | 0.00 | 0.00 | 0.00 | 75 | 1007.6 |
| 20260507021510 | 14 | 188 | 4.8 | 14.5 | 0.00 | 0.00 | 0.00 | 75 | 1007.6 |
| 20260507020008 | 14 | 191 | 6.4 | 14.5 | 0.00 | 0.00 | 0.00 | 74 | 1007.7 |
| 20260507014506 | 14 | 197 | 8.0 | 16.1 | 0.00 | 0.00 | 0.00 | 74 | 1007.7 |
| 20260507013012 | 14 | 212 | 4.8 | 11.3 | 0.00 | 0.00 | 0.00 | 74 | 1007.8 |
| 20260507011506 | 14 | 199 | 6.4 | 16.1 | 0.00 | 0.00 | 0.00 | 74 | 1008.0 |
| 20260507010104 | 14 | 221 | 3.2 | 9.7 | 0.00 | 0.00 | 0.00 | 73 | 1008.1 |
| 20260507004606 | 15 | 186 | 4.8 | 9.7 | 0.00 | 0.00 | 0.00 | 74 | 1008.2 |
| 20260507003058 | 14 | 194 | 3.2 | 9.7 | 0.00 | 0.00 | 0.00 | 73 | 1008.3 |
| 20260507001556 | 15 | 199 | 4.8 | 9.7 | 0.00 | 0.00 | 0.00 | 73 | 1008.3 |
| 20260507000054 | 15 | 206 | 6.4 | 12.9 | 0.00 | 0.00 | 0.00 | 73 | 1008.5 |
| 20260506234552 | 15 | 205 | 3.2 | 8.0 | 0.00 | 0.00 | 0.00 | 73 | 1008.6 |
| 20260506233103 | 15 | 196 | 4.8 | 9.7 | 0.00 | 0.00 | 0.00 | 74 | 1008.7 |
| 20260506231555 | 15 | 237 | 4.8 | 9.7 | 0.00 | 0.00 | 0.00 | 74 | 1008.6 |
| 20260506230049 | 15 | 249 | 4.8 | 11.3 | 0.00 | 0.00 | 0.00 | 72 | 1008.6 |
| 20260506224545 | 15 | 235 | 4.8 | 11.3 | 0.00 | 0.00 | 0.00 | 68 | 1008.7 |
| 20260506223046 | 15 | 243 | 3.2 | 9.7 | 0.00 | 0.00 | 0.00 | 64 | 1008.7 |
| 20260506221541 | 16 | 245 | 3.2 | 9.7 | 0.00 | 0.00 | 0.00 | 61 | 1008.7 |
| 20260506220041 | 16 | 238 | 6.4 | 11.3 | 0.00 | 0.00 | 0.00 | 60 | 1008.5 |
| 20260506214543 | 16 | 247 | 3.2 | 9.7 | 0.00 | 0.00 | 0.00 | 59 | 1008.6 |
| 20260506213056 | 16 | 251 | 6.4 | 9.7 | 0.00 | 0.00 | 0.00 | 58 | 1008.5 |
| 20260506211540 | 16 | 246 | 6.4 | 14.5 | 0.00 | 0.00 | 0.00 | 57 | 1008.2 |
| 20260506210040 | 17 | 255 | 8.0 | 16.1 | 0.00 | 0.00 | 0.00 | 55 | 1008.1 |
| 20260506204539 | 17 | 276 | 8.0 | 16.1 | 0.00 | 0.00 | 0.00 | 55 | 1007.9 |
| 20260506203038 | 17 | 267 | 8.0 | 12.9 | 0.00 | 0.00 | 0.00 | 55 | 1007.8 |
| 20260506201541 | 17 | 269 | 9.7 | 14.5 | 0.00 | 0.00 | 0.00 | 54 | 1007.7 |
| 20260506200038 | 17 | 263 | 8.0 | 16.1 | 0.00 | 0.00 | 0.00 | 53 | 1007.7 |
| 20260506194537 | 18 | 259 | 6.4 | 12.9 | 0.00 | 0.00 | 0.00 | 50 | 1007.5 |
| 20260506193038 | 19 | 278 | 9.7 | 17.7 | 0.00 | 0.00 | 0.00 | 47 | 1007.3 |
| 20260506191540 | 19 | 268 | 9.7 | 16.1 | 0.00 | 0.00 | 0.00 | 48 | 1007.2 |
| 20260506190036 | 20 | 259 | 12.9 | 22.5 | 0.00 | 0.00 | 0.00 | 46 | 1007.1 |
| 20260506184547 | 21 | 270 | 11.3 | 22.5 | 0.00 | 0.00 | 0.00 | 43 | 1007.0 |
| 20260506183050 | 21 | 254 | 12.9 | 22.5 | 0.00 | 0.00 | 0.00 | 43 | 1007.0 |
| 20260506181558 | 21 | 245 | 11.3 | 22.5 | 0.00 | 0.00 | 0.00 | 41 | 1006.9 |
| 20260506180036 | 22 | 280 | 12.9 | 22.5 | 0.00 | 0.00 | 0.00 | 40 | 1007.0 |
| 20260506174533 | 22 | 242 | 9.7 | 22.5 | 0.00 | 0.00 | 0.00 | 37 | 1007.1 |
| 20260506173044 | 23 | 215 | 11.3 | 22.5 | 0.00 | 0.00 | 0.00 | 35 | 1007.0 |
| 20260506171532 | 23 | 240 | 12.9 | 24.1 | 0.00 | 0.00 | 0.00 | 35 | 1007.1 |
| 20260506170033 | 23 | 251 | 11.3 | 22.5 | 0.00 | 0.00 | 0.00 | 35 | 1007.1 |
| 20260506164536 | 23 | 253 | 11.3 | 24.1 | 0.00 | 0.00 | 0.00 | 35 | 1007.1 |
| 20260506163035 | 24 | 267 | 12.9 | 25.7 | 0.00 | 0.00 | 0.00 | 34 | 1007.3 |
| 20260506161530 | 26 | 199 | 6.4 | 14.5 | 0.00 | 0.00 | 0.00 | 26 | 1007.1 |
| 20260506160030 | 26 | 323 | 1.6 | 11.3 | 0.00 | 0.00 | 0.00 | 25 | 1007.1 |
| 20260506154527 | 26 | 240 | 4.8 | 14.5 | 0.00 | 0.00 | 0.00 | 27 | 1007.2 |
| 20260506153025 | 26 | 205 | 3.2 | 8.0 | 0.00 | 0.00 | 0.00 | 26 | 1007.5 |
| 20260506151522 | 25 | 190 | 6.4 | 12.9 | 0.00 | 0.00 | 0.00 | 28 | 1007.6 |
| 20260506150021 | 25 | 117 | 3.2 | 12.9 | 0.00 | 0.00 | 0.00 | 30 | 1007.9 |